createdAt,value
2023-04-17T00:02:02.923Z,100240.56
2023-04-17T00:04:30.636Z,100225.34
2023-04-17T00:06:59.228Z,100240.19
2023-04-17T00:09:26.000Z,100229.03
2023-04-17T00:11:52.301Z,100243.31
2023-04-17T00:14:18.668Z,100228.63
2023-04-17T00:16:45.043Z,100242.50
2023-04-17T00:19:11.878Z,100235.97
2023-04-17T00:21:38.323Z,100230.88
2023-04-17T00:24:04.771Z,100240.63
2023-04-17T00:26:32.320Z,100231.50
2023-04-17T00:28:58.656Z,100247.78
2023-04-17T00:31:24.976Z,100234.03
2023-04-17T00:33:51.342Z,100238.03
2023-04-17T00:36:17.688Z,100235.41
2023-04-17T00:38:44.160Z,100230.78
2023-04-17T00:41:11.360Z,100235.78
2023-04-17T00:43:39.366Z,100227.66
2023-04-17T00:46:06.099Z,100226.19
2023-04-17T00:48:33.776Z,100220.16
2023-04-17T00:51:03.244Z,100223.41
2023-04-17T00:53:33.912Z,100219.19
2023-04-17T00:56:01.121Z,100218.75
2023-04-17T00:58:27.733Z,100218.31
2023-04-17T01:00:54.479Z,100218.38
2023-04-17T01:03:21.768Z,100212.47
2023-04-17T01:05:51.338Z,100219.81
2023-04-17T01:08:18.914Z,100215.63
2023-04-17T01:10:45.635Z,100213.34
2023-04-17T01:13:11.993Z,100217.44
2023-04-17T01:15:40.725Z,100214.06
2023-04-17T01:18:07.220Z,100218.28
2023-04-17T01:20:34.573Z,100215.59
2023-04-17T01:23:01.186Z,100215.22
2023-04-17T01:25:28.229Z,100215.22
2023-04-17T01:27:56.096Z,100216.22
2023-04-17T01:30:22.717Z,100218.31
2023-04-17T01:33:00.806Z,100209.06
2023-04-17T01:35:28.051Z,100219.88
2023-04-17T01:37:55.576Z,100217.31
2023-04-17T01:40:22.026Z,100220.50
2023-04-17T01:42:48.418Z,100216.78
2023-04-17T01:45:15.127Z,100221.94
2023-04-17T01:47:41.551Z,100224.72
2023-04-17T01:50:11.004Z,100218.47
2023-04-17T01:52:37.320Z,100220.44
2023-04-17T01:55:04.120Z,100213.13
2023-04-17T01:57:32.519Z,100220.88
2023-04-17T01:59:58.847Z,100226.78
2023-04-17T02:02:25.356Z,100215.41
2023-04-17T02:04:51.730Z,100218.22
2023-04-17T02:07:18.077Z,100222.56
2023-04-17T02:09:44.384Z,100216.47
2023-04-17T02:12:10.815Z,100212.69
2023-04-17T02:14:37.154Z,100213.50
2023-04-17T02:17:03.910Z,100209.78
2023-04-17T02:19:32.406Z,100210.41
2023-04-17T02:22:02.306Z,100210.50
2023-04-17T02:24:30.416Z,100212.94
2023-04-17T02:27:00.102Z,100206.84
2023-04-17T02:29:26.548Z,100212.75
2023-04-17T02:31:53.346Z,100215.47
2023-04-17T02:34:19.738Z,100214.59
2023-04-17T02:36:47.237Z,100206.69
2023-04-17T02:39:13.999Z,100217.09
2023-04-17T02:41:41.166Z,100214.47
2023-04-17T02:44:08.845Z,100211.06
2023-04-17T02:46:35.180Z,100217.19
2023-04-17T02:49:02.472Z,100213.81
2023-04-17T02:51:30.861Z,100213.69
2023-04-17T02:53:57.197Z,100213.91
2023-04-17T02:56:23.676Z,100219.78
2023-04-17T02:58:50.018Z,100222.97
2023-04-17T03:01:16.469Z,100212.91
2023-04-17T03:03:45.325Z,100210.50
2023-04-17T03:06:14.151Z,100212.50
2023-04-17T03:08:42.036Z,100221.13
2023-04-17T03:11:08.348Z,100217.94
2023-04-17T03:13:36.859Z,100208.06
2023-04-17T03:16:06.658Z,100224.00
2023-04-17T03:18:39.731Z,100215.53
2023-04-17T03:21:06.611Z,100215.19
2023-04-17T03:23:33.232Z,100217.50
2023-04-17T03:25:59.552Z,100222.59
2023-04-17T03:28:27.047Z,100219.31
2023-04-17T03:30:54.804Z,100218.13
2023-04-17T03:33:21.325Z,100218.03
2023-04-17T03:35:47.885Z,100226.34
2023-04-17T03:38:15.225Z,100222.19
2023-04-17T03:40:41.841Z,100225.88
2023-04-17T03:43:09.591Z,100222.59
2023-04-17T03:45:36.267Z,100221.16
2023-04-17T03:48:03.475Z,100227.84
2023-04-17T03:50:31.118Z,100233.13
2023-04-17T03:52:57.530Z,100220.59
2023-04-17T03:55:26.304Z,100231.53
2023-04-17T03:57:53.193Z,100221.63
2023-04-17T04:00:21.705Z,100228.28
2023-04-17T04:02:52.224Z,100231.91
2023-04-17T04:05:23.509Z,100229.16
2023-04-17T04:07:49.909Z,100231.94
2023-04-17T04:10:23.870Z,100228.97
2023-04-17T04:12:50.330Z,100232.31
2023-04-17T04:15:17.202Z,100229.72
2023-04-17T04:17:46.034Z,100228.25
2023-04-17T04:20:12.635Z,100223.72
2023-04-17T04:22:41.465Z,100231.91
2023-04-17T04:25:08.279Z,100231.03
2023-04-17T04:27:49.672Z,100234.25
2023-04-17T04:30:21.561Z,100230.44
2023-04-17T04:32:51.280Z,100236.66
2023-04-17T04:35:17.716Z,100237.41
2023-04-17T04:37:46.268Z,100229.00
2023-04-17T04:40:16.228Z,100232.66
2023-04-17T04:42:42.700Z,100243.66
2023-04-17T04:45:16.252Z,100236.81
2023-04-17T04:47:44.155Z,100240.38
2023-04-17T04:50:10.854Z,100244.03
2023-04-17T04:52:37.249Z,100243.13
2023-04-17T04:55:14.833Z,100242.34
2023-04-17T04:57:46.877Z,100242.31
2023-04-17T05:00:14.470Z,100241.44
2023-04-17T05:02:46.010Z,100247.16
2023-04-17T05:05:13.975Z,100251.88
2023-04-17T05:07:41.278Z,100245.75
2023-04-17T05:10:10.774Z,100249.63
2023-04-17T05:12:44.219Z,100248.00
2023-04-17T05:15:12.092Z,100244.34
2023-04-17T05:17:39.051Z,100251.53
2023-04-17T05:20:09.560Z,100250.75
2023-04-17T05:22:44.147Z,100252.25
2023-04-17T05:25:12.418Z,100253.09
2023-04-17T05:27:38.751Z,100259.88
2023-04-17T05:30:06.325Z,100255.44
2023-04-17T05:32:34.814Z,100267.06
2023-04-17T05:35:12.111Z,100260.41
2023-04-17T05:37:39.830Z,100265.38
2023-04-17T05:40:07.047Z,100263.75
2023-04-17T05:42:34.476Z,100267.25
2023-04-17T05:45:01.188Z,100258.88
2023-04-17T05:47:27.614Z,100262.06
2023-04-17T05:49:57.414Z,100260.03
2023-04-17T05:52:27.153Z,100271.28
2023-04-17T05:54:53.572Z,100271.38
2023-04-17T05:57:20.804Z,100261.66
2023-04-17T05:59:49.089Z,100266.94
2023-04-17T06:02:16.530Z,100261.44
2023-04-17T06:04:46.597Z,100265.59
2023-04-17T06:07:13.274Z,100274.91
2023-04-17T06:09:40.745Z,100271.13
2023-04-17T06:12:07.411Z,100282.44
2023-04-17T06:14:34.430Z,100282.13
2023-04-17T06:17:05.002Z,100280.00
2023-04-17T06:19:31.476Z,100282.88
2023-04-17T06:21:57.959Z,100283.63
2023-04-17T06:24:25.740Z,100282.66
2023-04-17T06:26:52.084Z,100289.22
2023-04-17T06:29:18.600Z,100286.41
2023-04-17T06:31:44.955Z,100283.31
2023-04-17T06:34:12.101Z,100291.16
2023-04-17T06:36:41.928Z,100286.41
2023-04-17T06:39:08.366Z,100294.75
2023-04-17T06:41:34.819Z,100290.31
2023-04-17T06:44:01.171Z,100288.28
2023-04-17T06:46:43.145Z,100292.88
2023-04-17T06:49:09.980Z,100295.19
2023-04-17T06:51:36.696Z,100304.81
2023-04-17T06:54:03.001Z,100305.13
2023-04-17T06:56:29.322Z,100309.16
2023-04-17T06:58:57.710Z,100311.06
2023-04-17T07:01:24.045Z,100312.44
2023-04-17T07:03:50.677Z,100306.63
2023-04-17T07:06:17.191Z,100317.00
2023-04-17T07:08:43.662Z,100312.53
2023-04-17T07:11:10.072Z,100315.72
2023-04-17T07:13:36.651Z,100317.31
2023-04-17T07:16:03.657Z,100315.84
2023-04-17T07:18:30.120Z,100316.16
2023-04-17T07:20:56.646Z,100321.34
2023-04-17T07:23:23.533Z,100319.44
2023-04-17T07:25:50.088Z,100304.19
2023-04-17T07:28:16.619Z,100319.75
2023-04-17T07:30:42.943Z,100326.72
2023-04-17T07:33:09.946Z,100329.28
2023-04-17T07:35:36.356Z,100319.53
2023-04-17T07:38:04.382Z,100326.19
2023-04-17T07:40:31.480Z,100335.50
2023-04-17T07:42:57.779Z,100338.56
2023-04-17T07:45:24.129Z,100341.53
2023-04-17T07:47:53.368Z,100332.75
2023-04-17T07:50:19.916Z,100335.19
2023-04-17T07:52:46.824Z,100338.16
2023-04-17T07:55:13.292Z,100326.31
2023-04-17T07:57:43.126Z,100342.41
2023-04-17T08:00:16.227Z,100330.16
2023-04-17T08:02:43.729Z,100344.53
2023-04-17T08:05:10.508Z,100353.09
2023-04-17T08:07:37.407Z,100343.91
2023-04-17T08:10:04.964Z,100351.94
2023-04-17T08:12:31.298Z,100342.84
2023-04-17T08:14:57.669Z,100358.50
2023-04-17T08:17:25.925Z,100360.41
2023-04-17T08:19:57.354Z,100354.72
2023-04-17T08:22:25.316Z,100356.94
2023-04-17T08:24:57.280Z,100362.22
2023-04-17T08:27:25.260Z,100351.53
2023-04-17T08:29:53.460Z,100357.25
2023-04-17T08:32:21.189Z,100358.31
2023-04-17T08:34:47.933Z,100370.06
2023-04-17T08:37:14.268Z,100363.56
2023-04-17T08:39:40.809Z,100367.41
2023-04-17T08:42:12.098Z,100369.00
2023-04-17T08:44:42.981Z,100365.91
2023-04-17T08:47:09.404Z,100372.78
2023-04-17T08:49:36.189Z,100372.06
2023-04-17T08:52:04.410Z,100373.53
2023-04-17T08:54:35.505Z,100367.81
2023-04-17T08:57:03.771Z,100374.69
2023-04-17T08:59:31.164Z,100376.69
2023-04-17T09:02:08.125Z,100363.38
2023-04-17T09:04:43.206Z,100382.84
2023-04-17T09:07:11.645Z,100374.59
2023-04-17T09:09:49.406Z,100377.03
2023-04-17T09:12:16.093Z,100365.69
2023-04-17T09:14:42.461Z,100371.72
2023-04-17T09:17:08.882Z,100373.50
2023-04-17T09:19:35.477Z,100357.25
2023-04-17T09:22:18.829Z,100364.31
2023-04-17T09:24:45.400Z,100360.59
2023-04-17T09:27:25.163Z,100373.47
2023-04-17T09:30:05.847Z,100372.75
2023-04-17T09:32:33.784Z,100373.25
2023-04-17T09:35:02.345Z,100372.06
2023-04-17T09:37:51.380Z,100371.81
2023-04-17T09:40:22.815Z,100365.72
2023-04-17T09:42:58.936Z,100364.34
2023-04-17T09:45:26.465Z,100361.44
2023-04-17T09:47:55.776Z,100356.28
2023-04-17T09:50:24.832Z,100370.72
2023-04-17T09:52:52.530Z,100365.41
2023-04-17T09:55:23.575Z,100367.25
2023-04-17T09:57:51.385Z,100376.94
2023-04-17T10:00:20.058Z,100365.59
2023-04-17T10:02:49.393Z,100367.63
2023-04-17T10:05:16.836Z,100377.06
2023-04-17T10:07:43.269Z,100373.22
2023-04-17T10:14:37.442Z,100355.44
2023-04-17T10:17:24.076Z,100353.94
2023-04-17T10:19:50.592Z,100355.22
2023-04-17T10:22:19.870Z,100360.94
2023-04-17T10:24:51.925Z,100373.69
2023-04-17T10:27:24.282Z,100366.53
2023-04-17T10:29:54.197Z,100365.94
2023-04-17T10:32:21.686Z,100356.31
2023-04-17T10:34:48.190Z,100361.25
2023-04-17T10:37:17.159Z,100360.84
2023-04-17T10:40:02.168Z,100357.69
2023-04-17T10:42:30.114Z,100347.81
2023-04-17T10:45:01.678Z,100348.78
2023-04-17T10:47:35.595Z,100352.41
2023-04-17T10:50:04.338Z,100353.69
2023-04-17T10:52:34.506Z,100350.13
2023-04-17T10:55:21.863Z,100349.66
2023-04-17T10:58:12.852Z,100345.28
2023-04-17T11:00:50.743Z,100348.31
2023-04-17T11:03:17.568Z,100342.72
2023-04-17T11:05:45.889Z,100350.03
2023-04-17T11:08:12.964Z,100346.28
2023-04-17T11:10:39.358Z,100344.53
2023-04-17T11:13:06.235Z,100331.69
2023-04-17T11:15:34.918Z,100337.13
2023-04-17T11:18:02.526Z,100329.63
2023-04-17T11:20:31.044Z,100335.31
2023-04-17T11:23:05.001Z,100344.00
2023-04-17T11:25:33.855Z,100331.66
2023-04-17T11:28:11.375Z,100335.38
2023-04-17T11:30:44.237Z,100332.09
2023-04-17T11:33:15.849Z,100318.81
2023-04-17T11:35:44.928Z,100319.09
2023-04-17T11:38:23.210Z,100329.66
2023-04-17T11:40:51.131Z,100322.69
2023-04-17T11:43:18.848Z,100337.25
2023-04-17T11:45:46.828Z,100335.22
2023-04-17T11:48:14.792Z,100323.13
2023-04-17T11:50:43.525Z,100335.59
2023-04-17T11:53:14.442Z,100331.81
2023-04-17T11:55:41.136Z,100332.00
2023-04-17T11:58:09.587Z,100337.97
2023-04-17T12:00:37.515Z,100334.06
2023-04-17T12:03:36.347Z,100337.47
2023-04-17T12:06:04.770Z,100339.41
2023-04-17T12:08:31.365Z,100334.41
2023-04-17T12:10:58.596Z,100331.66
2023-04-17T12:13:25.596Z,100340.25
2023-04-17T12:15:52.114Z,100339.81
2023-04-17T12:18:18.455Z,100349.06
2023-04-17T12:20:44.806Z,100340.63
2023-04-17T12:23:11.107Z,100339.91
2023-04-17T12:25:37.455Z,100338.50
2023-04-17T12:28:04.908Z,100348.63
2023-04-17T12:30:31.887Z,100356.25
2023-04-17T12:32:58.420Z,100353.22
2023-04-17T12:35:24.823Z,100343.56
2023-04-17T12:37:51.401Z,100349.00
2023-04-17T12:40:20.477Z,100351.66
2023-04-17T12:42:49.745Z,100348.00
2023-04-17T12:45:16.876Z,100352.84
2023-04-17T12:47:43.723Z,100341.38
2023-04-17T12:50:11.679Z,100340.69
2023-04-17T12:52:39.336Z,100348.00
2023-04-17T12:55:07.555Z,100343.06
2023-04-17T12:57:35.624Z,100339.94
2023-04-17T13:00:05.430Z,100337.31
2023-04-17T13:02:32.147Z,100339.00
2023-04-17T13:04:58.592Z,100332.22
2023-04-17T13:07:25.404Z,100331.97
2023-04-17T13:09:51.797Z,100332.03
2023-04-17T13:12:18.133Z,100323.38
2023-04-17T13:14:44.467Z,100311.09
2023-04-17T13:17:10.794Z,100312.50
2023-04-17T13:19:37.927Z,100322.59
2023-04-17T13:22:04.270Z,100322.53
2023-04-17T13:24:31.055Z,100315.84
2023-04-17T13:26:58.088Z,100309.50
2023-04-17T13:29:25.017Z,100311.13
2023-04-17T13:31:51.690Z,100319.72
2023-04-17T13:34:18.544Z,100321.94
2023-04-17T13:36:45.599Z,100311.41
2023-04-17T13:39:12.550Z,100298.78
2023-04-17T13:41:40.411Z,100315.63
2023-04-17T13:44:06.757Z,100305.78
2023-04-17T13:46:34.165Z,100309.00
2023-04-17T13:49:00.624Z,100303.28
2023-04-17T13:51:27.271Z,100304.84
2023-04-17T13:53:53.847Z,100301.94
2023-04-17T13:56:23.233Z,100300.78
2023-04-17T13:58:50.339Z,100296.94
2023-04-17T14:01:17.259Z,100304.09
2023-04-17T14:03:45.980Z,100302.41
2023-04-17T14:06:12.833Z,100286.16
2023-04-17T14:08:39.316Z,100288.59
2023-04-17T14:11:05.888Z,100287.31
2023-04-17T14:13:32.207Z,100284.28
2023-04-17T14:15:58.545Z,100278.72
2023-04-17T14:18:24.912Z,100288.78
2023-04-17T14:20:53.306Z,100273.88
2023-04-17T14:23:19.737Z,100286.59
2023-04-17T14:25:46.158Z,100272.25
2023-04-17T14:28:12.591Z,100286.25
2023-04-17T14:30:39.024Z,100283.84
2023-04-17T14:33:05.378Z,100287.50
2023-04-17T14:35:33.195Z,100276.88
2023-04-17T14:37:59.564Z,100272.81
2023-04-17T14:40:25.942Z,100277.94
2023-04-17T14:42:54.556Z,100266.97
2023-04-17T14:45:21.513Z,100267.50
2023-04-17T14:47:47.895Z,100263.41
2023-04-17T14:50:14.304Z,100263.78
2023-04-17T14:52:40.828Z,100256.47
2023-04-17T14:55:07.686Z,100253.41
2023-04-17T14:57:34.010Z,100255.44
2023-04-17T15:00:00.799Z,100265.81
2023-04-17T15:02:27.118Z,100262.38
2023-04-17T15:04:54.685Z,100265.56
2023-04-17T15:07:21.021Z,100257.13
2023-04-17T15:09:47.420Z,100260.31
2023-04-17T15:12:13.775Z,100256.53
2023-04-17T15:14:40.134Z,100254.28
2023-04-17T15:17:06.865Z,100251.63
2023-04-17T15:19:33.670Z,100261.28
2023-04-17T15:22:00.122Z,100250.31
2023-04-17T15:24:26.423Z,100248.75
2023-04-17T15:26:52.742Z,100253.94
2023-04-17T15:29:19.078Z,100254.78
2023-04-17T15:31:45.437Z,100249.22
2023-04-17T15:34:13.424Z,100247.25
2023-04-17T15:36:39.902Z,100242.69
2023-04-17T15:39:06.176Z,100256.66
2023-04-17T15:41:32.490Z,100259.44
2023-04-17T15:43:58.804Z,100251.00
2023-04-17T15:46:25.263Z,100253.59
2023-04-17T15:49:04.872Z,100264.59
2023-04-17T15:51:34.379Z,100252.56
2023-04-17T15:54:00.752Z,100257.38
2023-04-17T15:56:27.092Z,100250.63
2023-04-17T15:58:53.376Z,100253.03
2023-04-17T16:01:19.813Z,100258.25
2023-04-17T16:03:46.469Z,100253.78
2023-04-17T16:06:12.946Z,100265.56
2023-04-17T16:08:39.452Z,100258.88
2023-04-17T16:11:05.790Z,100253.41
2023-04-17T16:13:32.088Z,100256.06
2023-04-17T16:15:58.425Z,100254.63
2023-04-17T16:18:24.804Z,100254.38
2023-04-17T16:20:51.148Z,100262.47
2023-04-17T16:23:17.878Z,100256.69
2023-04-17T16:25:44.215Z,100257.56
2023-04-17T16:28:10.592Z,100256.56
2023-04-17T16:30:36.911Z,100256.44
2023-04-17T16:33:03.936Z,100257.41
2023-04-17T16:35:30.390Z,100253.44
2023-04-17T16:37:56.718Z,100257.66
2023-04-17T16:40:23.037Z,100257.06
2023-04-17T16:42:49.343Z,100259.00
2023-04-17T16:45:15.658Z,100270.34
2023-04-17T16:47:42.157Z,100258.84
2023-04-17T16:50:11.674Z,100256.84
2023-04-17T16:52:39.140Z,100268.16
2023-04-17T16:55:06.131Z,100261.06
2023-04-17T16:57:32.495Z,100264.91
2023-04-17T16:59:58.763Z,100267.19
2023-04-17T17:02:25.409Z,100269.00
2023-04-17T17:04:51.872Z,100254.53
2023-04-17T17:07:18.202Z,100271.66
2023-04-17T17:09:44.489Z,100269.13
2023-04-17T17:12:11.128Z,100266.59
2023-04-17T17:14:37.406Z,100270.94
2023-04-17T17:17:03.721Z,100270.34
2023-04-17T17:19:30.014Z,100278.19
2023-04-17T17:21:56.313Z,100275.31
2023-04-17T17:24:22.645Z,100271.69
2023-04-17T17:26:48.948Z,100270.97
2023-04-17T17:29:15.460Z,100271.31
2023-04-17T17:31:41.887Z,100271.19
2023-04-17T17:34:24.555Z,100275.91
2023-04-17T17:36:52.799Z,100277.00
2023-04-17T17:39:20.981Z,100280.97
2023-04-17T17:41:48.045Z,100277.97
2023-04-17T17:44:14.775Z,100277.09
2023-04-17T17:46:41.349Z,100271.94
2023-04-17T17:49:07.683Z,100272.03
2023-04-17T17:51:34.031Z,100272.16
2023-04-17T17:54:00.347Z,100273.25
2023-04-17T17:56:26.716Z,100273.97
2023-04-17T17:58:53.080Z,100280.84
2023-04-17T18:01:19.509Z,100275.91
2023-04-17T18:03:49.423Z,100281.31
2023-04-17T18:06:16.074Z,100275.53
2023-04-17T18:08:42.516Z,100284.69
2023-04-17T18:11:08.888Z,100282.41
2023-04-17T18:13:35.197Z,100279.88
2023-04-17T18:16:04.854Z,100287.09
2023-04-17T18:18:31.391Z,100290.00
2023-04-17T18:20:57.820Z,100284.81
2023-04-17T18:23:24.149Z,100285.19
2023-04-17T18:25:58.582Z,100289.16
2023-04-17T18:28:25.780Z,100287.56
2023-04-17T18:30:52.162Z,100294.09
2023-04-17T18:33:18.647Z,100289.47
2023-04-17T18:35:45.032Z,100291.78
2023-04-17T18:38:11.900Z,100297.69
2023-04-17T18:40:38.183Z,100299.25
2023-04-17T18:43:06.001Z,100302.75
2023-04-17T18:45:32.512Z,100295.28
2023-04-17T18:47:59.007Z,100300.94
2023-04-17T18:50:26.768Z,100306.63
2023-04-17T18:52:53.254Z,100304.06
2023-04-17T18:55:19.635Z,100303.69
2023-04-17T18:57:46.040Z,100309.00
2023-04-17T19:00:12.766Z,100304.53
2023-04-17T19:02:40.465Z,100317.44
2023-04-17T19:05:07.416Z,100307.63
2023-04-17T19:07:33.751Z,100317.25
2023-04-17T19:10:00.272Z,100314.56
2023-04-17T19:12:26.594Z,100312.97
2023-04-17T19:14:53.051Z,100318.75
2023-04-17T19:17:19.375Z,100311.81
2023-04-17T19:19:45.749Z,100308.94
2023-04-17T19:22:13.228Z,100314.75
2023-04-17T19:24:40.987Z,100314.84
2023-04-17T19:27:07.266Z,100323.19
2023-04-17T19:29:33.599Z,100324.34
2023-04-17T19:32:00.181Z,100327.66
2023-04-17T19:34:26.808Z,100318.19
2023-04-17T19:36:53.098Z,100321.31
2023-04-17T19:39:19.448Z,100317.28
2023-04-17T19:41:50.642Z,100324.28
2023-04-17T19:44:17.424Z,100325.16
2023-04-17T19:46:43.764Z,100327.66
2023-04-17T19:49:11.805Z,100322.84
2023-04-17T19:51:38.752Z,100325.38
2023-04-17T19:54:05.073Z,100329.19
2023-04-17T19:56:31.379Z,100322.53
2023-04-17T19:59:00.912Z,100328.41
2023-04-17T20:01:27.477Z,100324.06
2023-04-17T20:03:53.872Z,100319.91
2023-04-17T20:06:20.312Z,100323.66
2023-04-17T20:08:46.627Z,100325.44
2023-04-17T20:11:15.716Z,100327.06
2023-04-17T20:13:42.429Z,100324.41
2023-04-17T20:16:08.845Z,100329.19
2023-04-17T20:18:36.896Z,100325.09
2023-04-17T20:21:06.199Z,100323.97
2023-04-17T20:23:32.779Z,100330.13
2023-04-17T20:25:59.210Z,100335.38
2023-04-17T20:28:28.544Z,100318.94
2023-04-17T20:30:55.134Z,100320.09
2023-04-17T20:33:21.526Z,100322.25
2023-04-17T20:35:47.892Z,100323.22
2023-04-17T20:38:14.242Z,100326.50
2023-04-17T20:40:40.750Z,100326.72
2023-04-17T20:43:07.263Z,100338.81
2023-04-17T20:45:33.630Z,100331.84
2023-04-17T20:47:59.968Z,100329.72
2023-04-17T20:50:26.333Z,100329.06
2023-04-17T20:52:52.712Z,100330.00
2023-04-17T20:55:19.829Z,100327.50
2023-04-17T20:57:46.507Z,100327.16
2023-04-17T21:00:13.132Z,100324.91
2023-04-17T21:02:39.713Z,100319.72
2023-04-17T21:05:07.293Z,100323.94
2023-04-17T21:07:33.710Z,100316.84
2023-04-17T21:10:00.032Z,100328.34
2023-04-17T21:12:26.365Z,100324.31
2023-04-17T21:14:52.792Z,100323.81
2023-04-17T21:17:19.677Z,100324.44
2023-04-17T21:19:46.062Z,100322.56
2023-04-17T21:22:12.974Z,100314.38
2023-04-17T21:24:39.571Z,100324.13
2023-04-17T21:27:06.164Z,100315.44
2023-04-17T21:29:32.672Z,100320.66
2023-04-17T21:31:59.487Z,100314.06
2023-04-17T21:34:26.057Z,100313.16
2023-04-17T21:36:54.055Z,100311.13
2023-04-17T21:39:21.520Z,100311.59
2023-04-17T21:41:47.980Z,100310.06
2023-04-17T21:44:14.960Z,100311.28
2023-04-17T21:46:44.360Z,100321.69
2023-04-17T21:49:10.717Z,100320.97
2023-04-17T21:51:37.045Z,100326.72
2023-04-17T21:54:04.063Z,100331.31
2023-04-17T21:56:31.700Z,100317.22
2023-04-17T21:58:58.091Z,100328.59
2023-04-17T22:01:24.474Z,100325.69
2023-04-17T22:03:50.919Z,100328.13
2023-04-17T22:06:17.298Z,100321.59
2023-04-17T22:08:43.680Z,100317.56
2023-04-17T22:11:10.140Z,100324.34
2023-04-17T22:13:36.565Z,100323.78
2023-04-17T22:16:03.572Z,100334.84
2023-04-17T22:18:30.001Z,100321.91
2023-04-17T22:20:56.304Z,100328.50
2023-04-17T22:23:22.639Z,100325.41
2023-04-17T22:25:48.967Z,100321.91
2023-04-17T22:28:15.564Z,100325.31
2023-04-17T22:30:41.936Z,100327.75
2023-04-17T22:33:08.449Z,100328.31
2023-04-17T22:35:34.844Z,100318.88
2023-04-17T22:38:01.157Z,100318.56
2023-04-17T22:40:27.563Z,100331.41
2023-04-17T22:42:53.887Z,100327.97
2023-04-17T22:45:20.272Z,100321.75
2023-04-17T22:47:46.613Z,100322.56
2023-04-17T22:50:14.096Z,100325.81
2023-04-17T22:52:40.745Z,100320.38
2023-04-17T22:55:07.363Z,100323.75
2023-04-17T22:57:33.670Z,100324.97
2023-04-17T22:59:59.997Z,100315.72
2023-04-17T23:02:26.347Z,100320.72
2023-04-17T23:04:52.989Z,100318.66
2023-04-17T23:07:19.300Z,100316.97
2023-04-17T23:09:46.351Z,100324.88
2023-04-17T23:12:12.712Z,100326.09
2023-04-17T23:14:39.029Z,100332.22
2023-04-17T23:17:06.419Z,100326.50
2023-04-17T23:19:32.881Z,100326.88
2023-04-17T23:22:00.933Z,100317.00
2023-04-17T23:24:27.444Z,100316.88
2023-04-17T23:26:54.991Z,100331.97
2023-04-17T23:29:21.360Z,100330.09
2023-04-17T23:31:47.924Z,100327.03
2023-04-17T23:34:14.595Z,100320.47
2023-04-17T23:36:41.072Z,100329.81
2023-04-17T23:39:07.401Z,100317.53
2023-04-17T23:41:34.814Z,100307.78
2023-04-17T23:44:01.575Z,100309.75
2023-04-17T23:46:27.963Z,100308.31
2023-04-17T23:48:54.360Z,100315.72
2023-04-17T23:51:20.850Z,100323.38
2023-04-17T23:53:47.266Z,100321.53
2023-04-17T23:56:13.660Z,100317.63
2023-04-17T23:58:40.028Z,100327.47
